Sylvania, OH

7:39 AM EST on January 25, 2015 (GMT -0500)
Lambertville | Change Station
CLOSE
Current Station
Airport
Location: Lambertville,
Elevation: 666 ft
Nearby Weather Stations

Elev 666 ft 41.74 °N, 83.66 °W | Updated 5 minutes ago

Overcast
Overcast
32 °F
Feels Like 25 °F
N
8
Wind Variable Wind from ENE

Today
High -- | Low -- °F
--% Chance of Precip.
Yesterday
High -- | Low -- °F
Precip. -- in
7:53 AM 5:41 PM
Waxing Crescent, 32% visible
Pressure 29.79 in
Visibility 7.0 miles
Clouds Overcast 700 ft
Windchill 25 °F
Dew Point 28 °F
Humidity 87%
Rainfall 0.00 in
Snow Depth Not available.
UV 0 out of 12
Pollen .10 out of 12
Air Quality Not available.
Flu Activity Not available.
METAR KDUH 251234Z AUTO 07007KT 7SM OVC007 00/M02 A2979 RMK AO2

More Conditions Fewer Conditions

Pressure 29.79 in
Visibility 7.0 miles
Clouds Overcast 700 ft
Windchill 25 °F
Dew Point 28 °F
Humidity 87%
Rainfall 0.00 in
Snow Depth Not available.
UV 0 out of 12
Pollen .10 out of 12
Air Quality Not available.
Flu Activity Not available.
METAR KDUH 251234Z AUTO 07007KT 7SM OVC007 00/M02 A2979 RMK AO2

More Conditions Fewer Conditions

10-Day Weather Forecast

Almanac

Astronomy

Jan. 25, 2015 Rise Set
Actual Time
Civil Twilight
Nautical Twilight
Astronomical Twilight
Moon
Length of Visible Light
Length of Day
Tomorrow will be .
, % of the Moon is Illuminated

Today's Extremes

State Highs State Lows

Community

WunderPhotos

Upload Photos

1,789,873 photos uploaded!

WunderBlogs® & News

Nearby

Air Quality

  Air Quality AQ Index Pollutant
Not available.

Snow Depth

Station Depth Elevation

Earthquake Activity

City Distance Mag. Time & Date
Minimum magnitude displayed is 2.5.

Coastal Water Temperatures

Place Temperature

Nearby Weather Stations